createdAt,value
2022-12-01T00:01:19.374Z,18.15
2022-12-01T00:03:46.301Z,14.75
2022-12-01T00:06:16.214Z,16.92
2022-12-01T00:09:03.206Z,17.77
2022-12-01T00:11:30.230Z,16.60
2022-12-01T00:13:57.155Z,17.63
2022-12-01T00:16:24.127Z,15.23
2022-12-01T00:18:52.534Z,15.73
2022-12-01T00:21:21.734Z,15.18
2022-12-01T00:23:51.007Z,16.00
2022-12-01T00:26:19.767Z,15.45
2022-12-01T00:28:51.546Z,15.82
2022-12-01T00:31:18.990Z,15.23
2022-12-01T00:33:45.952Z,16.48
2022-12-01T00:36:12.845Z,15.40
2022-12-01T00:38:39.874Z,14.65
2022-12-01T00:41:06.861Z,15.48
2022-12-01T00:43:33.792Z,14.90
2022-12-01T00:46:00.933Z,15.07
2022-12-01T00:48:27.898Z,15.90
2022-12-01T00:50:55.735Z,16.13
2022-12-01T00:53:23.503Z,17.63
2022-12-01T00:55:50.476Z,15.25
2022-12-01T00:58:17.386Z,16.52
2022-12-01T01:00:44.234Z,16.35
2022-12-01T01:03:11.616Z,15.77
2022-12-01T01:05:40.036Z,18.17
2022-12-01T01:08:14.967Z,15.38
2022-12-01T01:10:46.863Z,15.80
2022-12-01T01:13:15.212Z,14.63
2022-12-01T01:15:42.449Z,16.02
2022-12-01T01:18:12.248Z,14.35
2022-12-01T01:20:39.220Z,15.23
2022-12-01T01:23:06.124Z,13.95
2022-12-01T01:25:33.561Z,16.05
2022-12-01T01:28:00.440Z,16.50
2022-12-01T01:30:27.369Z,15.55
2022-12-01T01:32:54.267Z,17.30
2022-12-01T01:35:21.358Z,14.07
2022-12-01T01:37:50.060Z,15.63
2022-12-01T01:40:17.170Z,17.00
2022-12-01T01:42:44.021Z,16.27
2022-12-01T01:45:24.373Z,17.65
2022-12-01T01:47:53.793Z,18.27
2022-12-01T01:50:26.836Z,18.73
2022-12-01T01:53:02.350Z,16.90
2022-12-01T01:55:31.830Z,17.15
2022-12-01T01:57:59.428Z,16.40
2022-12-01T02:00:26.442Z,16.92
2022-12-01T02:02:54.244Z,17.35
2022-12-01T02:05:22.900Z,17.48
2022-12-01T02:07:53.380Z,17.10
2022-12-01T02:10:22.781Z,15.68
2022-12-01T02:13:27.238Z,15.70
2022-12-01T02:16:12.571Z,16.50
2022-12-01T02:19:01.302Z,19.75
2022-12-01T02:21:52.155Z,17.98
2022-12-01T02:24:46.661Z,17.25
2022-12-01T02:27:34.014Z,20.13
2022-12-01T02:30:08.310Z,16.80
2022-12-01T02:33:13.796Z,20.35
2022-12-01T02:35:46.550Z,17.02
2022-12-01T02:38:25.283Z,19.17
2022-12-01T02:41:16.829Z,18.02
2022-12-01T02:44:10.883Z,16.90
2022-12-01T02:46:42.177Z,18.33
2022-12-01T02:49:14.525Z,18.23
2022-12-01T02:51:47.082Z,19.83
2022-12-01T02:54:15.654Z,23.48
2022-12-01T02:56:46.600Z,20.80
2022-12-01T02:59:14.949Z,20.92
2022-12-01T03:01:46.333Z,23.27
2022-12-01T03:04:57.556Z,25.05
2022-12-01T03:07:48.162Z,23.58
2022-12-01T03:10:20.744Z,22.92
2022-12-01T03:13:21.341Z,24.05
2022-12-01T03:16:00.113Z,24.85
2022-12-01T03:18:38.510Z,24.92
2022-12-01T03:21:21.661Z,24.73
2022-12-01T03:23:54.951Z,26.92
2022-12-01T03:26:24.505Z,28.25
2022-12-01T03:28:58.526Z,28.25
2022-12-01T03:31:31.802Z,26.85
2022-12-01T03:34:08.092Z,27.63
2022-12-01T03:36:50.573Z,25.85
2022-12-01T03:39:33.289Z,28.27
2022-12-01T03:42:06.371Z,27.80
2022-12-01T03:44:41.920Z,26.90
2022-12-01T03:47:13.942Z,27.95
2022-12-01T03:49:41.430Z,26.42
2022-12-01T03:52:28.382Z,29.15
2022-12-01T03:55:01.407Z,27.23
2022-12-01T03:57:50.277Z,28.45
2022-12-01T04:00:17.442Z,26.60
2022-12-01T04:02:48.897Z,28.33
2022-12-01T04:05:17.313Z,28.58
2022-12-01T04:07:45.804Z,26.48
2022-12-01T04:10:12.620Z,25.17
2022-12-01T04:12:39.454Z,28.02
2022-12-01T04:15:10.114Z,28.50
2022-12-01T04:17:37.131Z,29.13
2022-12-01T04:20:06.602Z,25.77
2022-12-01T04:22:34.137Z,27.67
2022-12-01T04:25:00.980Z,25.83
2022-12-01T04:27:27.898Z,26.05
2022-12-01T04:29:54.705Z,29.50
2022-12-01T04:32:21.655Z,25.98
2022-12-01T04:34:48.478Z,26.98
2022-12-01T04:37:17.017Z,28.10
2022-12-01T04:39:44.247Z,27.70
2022-12-01T04:42:11.378Z,30.50
2022-12-01T04:44:38.218Z,26.83
2022-12-01T04:47:06.394Z,27.83
2022-12-01T04:49:33.836Z,25.90
2022-12-01T04:52:00.651Z,27.58
2022-12-01T04:54:27.556Z,28.65
2022-12-01T04:56:54.383Z,28.38
2022-12-01T04:59:21.342Z,30.73
2022-12-01T05:01:48.450Z,31.13
2022-12-01T05:04:15.726Z,30.10
2022-12-01T05:06:43.219Z,28.65
2022-12-01T05:09:17.404Z,27.35
2022-12-01T05:11:45.093Z,30.73
2022-12-01T05:14:12.122Z,30.77
2022-12-01T05:16:39.096Z,26.17
2022-12-01T05:19:25.201Z,30.40
2022-12-01T05:21:55.054Z,27.80
2022-12-01T05:24:22.074Z,29.58
2022-12-01T05:26:48.979Z,29.83
2022-12-01T05:29:16.014Z,28.67
2022-12-01T05:31:42.984Z,31.15
2022-12-01T05:34:10.093Z,27.25
2022-12-01T05:36:36.957Z,27.17
2022-12-01T05:39:04.326Z,28.92
2022-12-01T05:41:31.136Z,26.95
2022-12-01T05:43:58.008Z,31.55
2022-12-01T05:46:24.964Z,29.63
2022-12-01T05:48:51.894Z,29.67
2022-12-01T05:51:18.764Z,28.52
2022-12-01T05:53:45.742Z,29.60
2022-12-01T05:56:12.908Z,27.00
2022-12-01T05:58:39.774Z,32.80
2022-12-01T06:01:06.846Z,28.45
2022-12-01T06:03:33.867Z,30.25
2022-12-01T06:06:00.985Z,33.90
2022-12-01T06:08:27.916Z,35.03
2022-12-01T06:10:54.746Z,36.58
2022-12-01T06:13:21.704Z,31.15
2022-12-01T06:16:03.220Z,31.42
2022-12-01T06:18:38.441Z,32.50
2022-12-01T06:21:06.626Z,31.48
2022-12-01T06:23:34.120Z,33.15
2022-12-01T06:26:01.140Z,34.35
2022-12-01T06:28:27.957Z,33.78
2022-12-01T06:30:59.467Z,33.55
2022-12-01T06:33:30.288Z,34.15
2022-12-01T06:35:59.127Z,28.58
2022-12-01T06:38:26.369Z,34.97
2022-12-01T06:40:53.229Z,32.78
2022-12-01T06:43:20.068Z,32.70
2022-12-01T06:45:46.990Z,39.67
2022-12-01T06:48:14.236Z,36.50
2022-12-01T06:50:41.268Z,38.20
2022-12-01T06:53:08.212Z,33.65
2022-12-01T06:55:35.976Z,31.23
2022-12-01T06:58:03.389Z,31.50
2022-12-01T07:00:30.891Z,30.98
2022-12-01T07:02:57.790Z,35.83
2022-12-01T07:05:24.615Z,32.75
2022-12-01T07:07:56.343Z,32.10
2022-12-01T07:10:26.152Z,34.78
2022-12-01T07:12:53.035Z,30.08
2022-12-01T07:15:19.924Z,29.50
2022-12-01T07:17:46.717Z,32.13
2022-12-01T07:20:13.756Z,30.55
2022-12-01T07:22:42.966Z,28.30
2022-12-01T07:25:09.969Z,35.22
2022-12-01T07:27:36.869Z,29.88
2022-12-01T07:30:04.294Z,30.42
2022-12-01T07:32:31.425Z,29.30
2022-12-01T07:34:58.325Z,29.55
2022-12-01T07:37:25.252Z,32.08
2022-12-01T07:39:52.298Z,27.88
2022-12-01T07:42:19.137Z,26.27
2022-12-01T07:44:46.011Z,30.15
2022-12-01T07:47:12.887Z,25.80
2022-12-01T07:49:39.779Z,31.50
2022-12-01T07:52:06.687Z,30.90
2022-12-01T07:54:33.601Z,25.20
2022-12-01T07:57:00.559Z,26.67
2022-12-01T07:59:27.446Z,29.30
2022-12-01T08:01:54.364Z,22.30
2022-12-01T08:04:21.265Z,29.80
2022-12-01T08:06:48.204Z,29.00
2022-12-01T08:09:15.010Z,32.10
2022-12-01T08:11:41.841Z,32.13
2022-12-01T08:14:08.896Z,29.30
2022-12-01T08:16:35.763Z,30.60
2022-12-01T08:19:02.667Z,28.25
2022-12-01T08:21:29.608Z,27.63
2022-12-01T08:23:57.650Z,27.80
2022-12-01T08:26:25.813Z,25.27
2022-12-01T08:28:52.698Z,28.58
2022-12-01T08:31:26.098Z,29.45
2022-12-01T08:33:53.618Z,27.77
2022-12-01T08:36:21.490Z,26.67
2022-12-01T08:38:50.724Z,27.73
2022-12-01T08:41:18.373Z,27.02
2022-12-01T08:44:01.914Z,25.08
2022-12-01T08:46:32.995Z,31.63
2022-12-01T08:49:00.385Z,31.40
2022-12-01T08:51:27.594Z,27.30
2022-12-01T08:53:56.599Z,22.17
2022-12-01T08:56:27.449Z,25.27
2022-12-01T08:58:54.918Z,28.65
2022-12-01T09:01:22.418Z,29.40
2022-12-01T09:03:49.347Z,23.95
2022-12-01T09:06:20.791Z,26.70
2022-12-01T09:08:48.165Z,25.00
2022-12-01T09:11:19.164Z,25.15
2022-12-01T09:13:54.291Z,23.67
2022-12-01T09:16:22.055Z,23.23
2022-12-01T09:18:49.064Z,23.35
2022-12-01T09:21:18.671Z,25.40
2022-12-01T09:23:45.914Z,28.52
2022-12-01T09:26:18.087Z,22.98
2022-12-01T09:28:46.176Z,27.42
2022-12-01T09:31:14.198Z,23.27
2022-12-01T09:33:41.254Z,25.45
2022-12-01T09:36:08.953Z,26.73
2022-12-01T09:38:37.592Z,23.92
2022-12-01T09:41:42.764Z,27.02
2022-12-01T09:44:17.182Z,31.90
2022-12-01T09:46:54.618Z,23.52
2022-12-01T09:49:35.961Z,26.95
2022-12-01T09:52:03.110Z,28.10
2022-12-01T09:54:29.996Z,30.27
2022-12-01T09:56:59.639Z,27.67
2022-12-01T09:59:41.688Z,27.90
2022-12-01T10:02:39.399Z,28.67
2022-12-01T10:05:12.563Z,33.38
2022-12-01T10:08:00.055Z,25.27
2022-12-01T10:10:43.784Z,26.40
2022-12-01T10:13:19.207Z,26.58
2022-12-01T10:15:54.905Z,27.25
2022-12-01T10:18:40.497Z,26.27
2022-12-01T10:21:43.807Z,28.20
2022-12-01T10:24:23.302Z,25.85
2022-12-01T10:27:24.846Z,29.27
2022-12-01T10:30:15.652Z,25.08
2022-12-01T10:33:09.263Z,29.33
2022-12-01T10:35:38.950Z,24.70
2022-12-01T10:38:13.326Z,25.42
2022-12-01T10:40:41.635Z,23.27
2022-12-01T10:43:10.695Z,31.33
2022-12-01T10:45:43.972Z,25.25
2022-12-01T10:48:10.902Z,25.27
2022-12-01T10:50:37.983Z,26.13
2022-12-01T10:53:05.201Z,26.75
2022-12-01T10:55:42.057Z,23.75
2022-12-01T10:58:18.924Z,22.40
2022-12-01T11:01:00.058Z,25.92
2022-12-01T11:03:34.766Z,27.00
2022-12-01T11:06:04.490Z,27.40
2022-12-01T11:08:45.702Z,22.70
2022-12-01T11:11:40.610Z,20.55
2022-12-01T11:14:20.643Z,20.70
2022-12-01T11:16:50.299Z,24.27
2022-12-01T11:19:34.724Z,25.20
2022-12-01T11:22:18.331Z,22.92
2022-12-01T11:24:53.145Z,24.90
2022-12-01T11:27:29.579Z,21.58
2022-12-01T11:30:00.465Z,22.50
2022-12-01T11:32:30.378Z,19.90
2022-12-01T11:35:00.545Z,27.50
2022-12-01T11:37:39.086Z,21.23
2022-12-01T11:40:24.932Z,19.10
2022-12-01T11:43:01.686Z,22.27
2022-12-01T11:45:37.075Z,22.20
2022-12-01T11:48:25.772Z,20.88
2022-12-01T11:51:24.169Z,19.13
2022-12-01T11:54:13.790Z,17.88
2022-12-01T11:56:41.846Z,20.98
2022-12-01T11:59:29.452Z,22.23
2022-12-01T12:02:11.354Z,16.90
2022-12-01T12:04:53.394Z,18.80
2022-12-01T12:07:26.125Z,16.27
2022-12-01T12:10:23.735Z,21.80
2022-12-01T12:13:29.410Z,15.75
2022-12-01T12:16:05.008Z,15.93
2022-12-01T12:18:45.386Z,19.40
2022-12-01T12:21:18.107Z,19.55
2022-12-01T12:23:54.518Z,16.75
2022-12-01T12:26:27.140Z,15.25
2022-12-01T12:29:13.982Z,17.83
2022-12-01T12:32:04.657Z,19.52
2022-12-01T12:34:54.116Z,18.35
2022-12-01T12:37:44.223Z,17.38
2022-12-01T12:40:28.319Z,26.42
2022-12-01T12:43:09.727Z,17.15
2022-12-01T12:46:07.499Z,17.67
2022-12-01T12:49:18.074Z,19.85
2022-12-01T12:51:45.432Z,22.92
2022-12-01T12:54:12.372Z,15.85
2022-12-01T12:56:44.718Z,24.60
2022-12-01T12:59:47.746Z,18.55
2022-12-01T13:02:23.224Z,18.45
2022-12-01T13:04:52.882Z,19.40
2022-12-01T13:07:30.893Z,20.75
2022-12-01T13:10:35.834Z,17.65
2022-12-01T13:13:34.078Z,18.20
2022-12-01T13:16:03.629Z,18.98
2022-12-01T13:18:34.030Z,20.00
2022-12-01T13:21:04.000Z,20.88
2022-12-01T13:23:32.516Z,20.95
2022-12-01T13:26:03.813Z,17.23
2022-12-01T13:28:40.739Z,20.08
2022-12-01T13:31:13.895Z,18.27
2022-12-01T13:34:00.560Z,21.02
2022-12-01T13:39:20.535Z,18.27
2022-12-01T13:41:58.683Z,20.38
2022-12-01T13:44:32.869Z,13.45
2022-12-01T13:47:15.713Z,22.20
2022-12-01T13:49:47.910Z,16.92
2022-12-01T13:52:25.826Z,16.80
2022-12-01T13:55:07.682Z,16.65
2022-12-01T13:57:36.074Z,15.27
2022-12-01T14:00:23.680Z,17.08
2022-12-01T14:03:13.124Z,20.52
2022-12-01T14:05:40.046Z,15.63
2022-12-01T14:08:37.749Z,13.85
2022-12-01T14:11:21.439Z,14.98
2022-12-01T14:14:09.109Z,15.32
2022-12-01T14:16:59.063Z,15.68
2022-12-01T14:19:34.910Z,20.90
2022-12-01T14:22:02.648Z,18.13
2022-12-01T14:24:38.153Z,17.98
2022-12-01T14:27:06.791Z,15.45
2022-12-01T14:29:38.790Z,16.50
2022-12-01T14:32:09.086Z,15.23
2022-12-01T14:34:39.688Z,17.45
2022-12-01T14:37:20.185Z,17.70
2022-12-01T14:39:56.570Z,16.55
2022-12-01T14:42:57.776Z,17.83
2022-12-01T14:45:42.758Z,20.83
2022-12-01T14:48:16.817Z,14.15
2022-12-01T14:50:53.596Z,12.75
2022-12-01T14:53:27.257Z,16.40
2022-12-01T14:56:08.378Z,13.75
2022-12-01T14:58:35.289Z,13.55
2022-12-01T15:01:11.976Z,14.63
2022-12-01T15:03:43.814Z,13.30
2022-12-01T15:06:16.000Z,19.52
2022-12-01T15:08:53.411Z,15.25
2022-12-01T15:11:30.293Z,14.65
2022-12-01T15:13:57.949Z,15.85
2022-12-01T15:16:28.982Z,18.20
2022-12-01T15:18:56.530Z,16.30
2022-12-01T15:21:30.460Z,16.92
2022-12-01T15:24:06.098Z,15.63
2022-12-01T15:26:35.734Z,17.17
2022-12-01T15:29:15.876Z,19.17
2022-12-01T15:31:48.510Z,14.15
2022-12-01T15:34:23.661Z,17.88
2022-12-01T15:36:52.781Z,13.98
2022-12-01T15:39:26.112Z,17.02
2022-12-01T15:41:54.341Z,16.10
2022-12-01T15:44:30.578Z,15.30
2022-12-01T15:46:57.717Z,16.60
2022-12-01T15:49:29.326Z,17.50
2022-12-01T15:52:10.294Z,20.65
2022-12-01T15:54:38.341Z,15.85
2022-12-01T15:57:06.714Z,15.88
2022-12-01T15:59:41.991Z,17.77
2022-12-01T16:02:29.229Z,16.00
2022-12-01T16:05:04.445Z,16.05
2022-12-01T16:08:04.615Z,18.48
2022-12-01T16:10:39.022Z,20.55
2022-12-01T16:13:59.799Z,18.58
2022-12-01T16:16:47.126Z,22.55
2022-12-01T16:19:16.934Z,16.50
2022-12-01T16:22:05.123Z,18.35
2022-12-01T16:24:35.942Z,18.10
2022-12-01T16:27:06.030Z,18.13
2022-12-01T16:29:57.319Z,24.13
2022-12-01T16:32:44.531Z,17.67
2022-12-01T16:35:30.549Z,19.20
2022-12-01T16:37:58.504Z,17.92
2022-12-01T16:40:26.085Z,18.65
2022-12-01T16:42:53.001Z,18.73
2022-12-01T16:45:20.401Z,21.75
2022-12-01T16:47:49.011Z,18.10
2022-12-01T16:50:18.609Z,23.63
2022-12-01T16:52:46.071Z,22.10
2022-12-01T16:55:19.070Z,20.55
2022-12-01T16:57:45.934Z,20.98
2022-12-01T17:00:13.377Z,22.88
2022-12-01T17:02:40.249Z,19.85
2022-12-01T17:05:07.580Z,23.85
2022-12-01T17:07:34.487Z,23.17
2022-12-01T17:10:01.535Z,22.67
2022-12-01T17:12:28.885Z,26.17
2022-12-01T17:14:55.844Z,21.33
2022-12-01T17:17:22.641Z,27.15
2022-12-01T17:19:52.824Z,23.90
2022-12-01T17:22:20.242Z,25.27
2022-12-01T17:24:47.172Z,23.98
2022-12-01T17:27:14.159Z,24.88
2022-12-01T17:29:45.912Z,22.58
2022-12-01T17:32:14.235Z,26.98
2022-12-01T17:34:41.140Z,26.15
2022-12-01T17:37:08.146Z,23.55
2022-12-01T17:39:34.991Z,26.73
2022-12-01T17:42:01.932Z,24.42
2022-12-01T17:44:28.906Z,29.73
2022-12-01T17:46:55.873Z,25.10
2022-12-01T17:49:22.797Z,30.70
2022-12-01T17:51:49.801Z,24.70
2022-12-01T17:54:16.756Z,29.75
2022-12-01T17:56:44.016Z,26.50
2022-12-01T17:59:10.867Z,26.52
2022-12-01T18:01:37.949Z,27.90
2022-12-01T18:04:05.057Z,28.27
2022-12-01T18:06:31.979Z,28.85
2022-12-01T18:09:00.581Z,24.30
2022-12-01T18:11:27.998Z,29.83
2022-12-01T18:13:55.264Z,28.80
2022-12-01T18:16:27.671Z,30.15
2022-12-01T18:18:56.563Z,27.02
2022-12-01T18:21:24.494Z,27.23
2022-12-01T18:23:56.727Z,27.05
2022-12-01T18:26:24.420Z,29.73
2022-12-01T18:29:06.360Z,30.25
2022-12-01T18:31:35.155Z,24.85
2022-12-01T18:34:03.589Z,28.52
2022-12-01T18:36:33.284Z,27.10
2022-12-01T18:39:01.618Z,27.50
2022-12-01T18:41:28.847Z,26.50
2022-12-01T18:43:55.713Z,26.70
2022-12-01T18:46:23.080Z,26.88
2022-12-01T18:48:52.843Z,22.98
2022-12-01T18:51:21.218Z,28.40
2022-12-01T18:53:48.203Z,26.92
2022-12-01T18:56:15.683Z,31.75
2022-12-01T18:58:42.872Z,27.83
2022-12-01T19:01:27.437Z,26.98
2022-12-01T19:03:55.728Z,28.25
2022-12-01T19:06:23.003Z,29.40
2022-12-01T19:08:50.753Z,29.52
2022-12-01T19:11:18.121Z,28.95
2022-12-01T19:13:45.496Z,26.95
2022-12-01T19:16:15.259Z,32.50
2022-12-01T19:18:43.302Z,28.13
2022-12-01T19:21:12.548Z,28.88
2022-12-01T19:23:40.860Z,30.83
2022-12-01T19:26:11.361Z,28.13
2022-12-01T19:28:38.624Z,32.55
2022-12-01T19:31:11.239Z,27.00
2022-12-01T19:33:38.526Z,30.35
2022-12-01T19:36:11.452Z,26.30
2022-12-01T19:38:39.188Z,30.70
2022-12-01T19:41:07.248Z,28.95
2022-12-01T19:43:35.343Z,30.73
2022-12-01T19:46:10.464Z,31.08
2022-12-01T19:48:37.467Z,29.27
2022-12-01T19:51:05.346Z,31.52
2022-12-01T19:53:34.105Z,32.42
2022-12-01T19:56:03.039Z,31.48
2022-12-01T19:58:33.270Z,34.25
2022-12-01T20:01:05.300Z,31.17
2022-12-01T20:03:32.580Z,33.75
2022-12-01T20:06:11.527Z,33.97
2022-12-01T20:08:39.339Z,30.67
2022-12-01T20:11:07.118Z,34.67
2022-12-01T20:13:37.790Z,31.70
2022-12-01T20:16:10.348Z,30.40
2022-12-01T20:18:38.058Z,32.67
2022-12-01T20:21:17.371Z,31.45
2022-12-01T20:23:49.340Z,34.92
2022-12-01T20:26:18.329Z,31.05
2022-12-01T20:28:47.432Z,32.67
2022-12-01T20:31:20.939Z,30.85
2022-12-01T20:33:48.409Z,31.80
2022-12-01T20:36:15.681Z,31.75
2022-12-01T20:38:42.692Z,30.25
2022-12-01T20:41:10.550Z,35.40
2022-12-01T20:43:37.645Z,35.92
2022-12-01T20:46:05.176Z,32.05
2022-12-01T20:48:32.895Z,32.58
2022-12-01T20:51:01.195Z,34.47
2022-12-01T20:53:28.461Z,38.30
2022-12-01T20:55:55.910Z,36.40
2022-12-01T20:58:23.284Z,35.47
2022-12-01T21:00:50.478Z,33.13
2022-12-01T21:03:17.331Z,29.70
2022-12-01T21:05:44.631Z,38.35
2022-12-01T21:08:13.232Z,31.98
2022-12-01T21:10:42.601Z,33.85
2022-12-01T21:13:38.912Z,33.63
2022-12-01T21:16:14.051Z,38.92
2022-12-01T21:19:01.129Z,47.78
2022-12-01T21:21:30.732Z,48.78
2022-12-01T21:24:22.389Z,39.80
2022-12-01T21:27:15.815Z,41.78
2022-12-01T21:29:50.212Z,39.35
2022-12-01T21:32:31.407Z,42.83
2022-12-01T21:35:08.150Z,43.35
2022-12-01T21:37:35.154Z,40.20
2022-12-01T21:40:02.183Z,42.63
2022-12-01T21:42:31.765Z,41.47
2022-12-01T21:44:58.712Z,48.00
2022-12-01T21:47:30.697Z,39.22
2022-12-01T21:49:59.279Z,42.33
2022-12-01T21:52:33.223Z,42.00
2022-12-01T21:55:23.018Z,42.13
2022-12-01T21:57:51.943Z,42.45
2022-12-01T22:00:35.021Z,39.97
2022-12-01T22:03:25.974Z,38.40
2022-12-01T22:06:29.367Z,38.15
2022-12-01T22:09:20.262Z,41.15
2022-12-01T22:11:53.909Z,38.92
2022-12-01T22:14:27.833Z,40.20
2022-12-01T22:16:56.446Z,38.58
2022-12-01T22:19:35.355Z,40.03
2022-12-01T22:22:11.049Z,40.75
2022-12-01T22:24:48.771Z,39.75
2022-12-01T22:27:29.366Z,40.75
2022-12-01T22:30:02.005Z,39.30
2022-12-01T22:32:45.794Z,39.67
2022-12-01T22:35:31.636Z,44.22
2022-12-01T22:38:06.143Z,41.55
2022-12-01T22:40:38.967Z,36.95
2022-12-01T22:43:20.121Z,37.83
2022-12-01T22:45:48.062Z,41.17
2022-12-01T22:48:37.685Z,37.67
2022-12-01T22:51:13.890Z,40.67
2022-12-01T22:53:42.164Z,42.25
2022-12-01T22:56:27.844Z,37.50
2022-12-01T22:58:56.262Z,34.88
2022-12-01T23:01:27.425Z,39.80
2022-12-01T23:04:18.944Z,38.92
2022-12-01T23:06:54.349Z,38.97
2022-12-01T23:09:23.568Z,43.75
2022-12-01T23:12:01.877Z,40.13
2022-12-01T23:14:29.094Z,42.05
2022-12-01T23:17:05.380Z,38.65
2022-12-01T23:19:34.024Z,38.22
2022-12-01T23:22:01.400Z,37.47
2022-12-01T23:24:33.520Z,38.58
2022-12-01T23:27:01.017Z,36.67
2022-12-01T23:29:29.232Z,40.53
2022-12-01T23:31:56.127Z,40.03
2022-12-01T23:34:23.134Z,37.95
2022-12-01T23:36:50.830Z,35.13
2022-12-01T23:39:21.895Z,39.42
2022-12-01T23:41:51.142Z,38.40
2022-12-01T23:44:26.439Z,37.92
2022-12-01T23:46:56.763Z,37.25
2022-12-01T23:49:29.545Z,40.58
2022-12-01T23:51:59.577Z,34.38
2022-12-01T23:54:32.174Z,37.28
2022-12-01T23:57:03.639Z,39.22
2022-12-01T23:59:31.748Z,37.83
